Terminal Aerodrome Forecast
Issued by NWS Shreveport, LA

Home | Current Version | Previous Version | Text Only | Print | Product List | Glossary On
Versions: 1 2 3 4 5 6 7 8 9 10 11 12 13 14
204
FTUS44 KSHV 271147
TAFMLU
TAF
KMLU 271147Z 2712/2812 20005KT P6SM SCT280
     FM271500 22008KT P6SM SCT025 SCT300
     FM271700 25007KT P6SM FEW040 SCT300
     FM272100 23008KT P6SM SCT045 SCT130
     FM280100 19003KT P6SM SCT050 BKN250=

USA.gov is the U.S. government's official web portal to all federal, state and local government web resources and services.